createdAt,value
2023-04-29T00:04:01.984Z,37.10
2023-04-29T00:09:04.857Z,33.38
2023-04-29T00:14:07.657Z,30.77
2023-04-29T00:19:09.664Z,27.95
2023-04-29T00:24:11.736Z,34.25
2023-04-29T00:29:13.845Z,31.45
2023-04-29T00:34:16.579Z,31.50
2023-04-29T00:39:18.660Z,32.97
2023-04-29T00:44:20.804Z,34.97
2023-04-29T00:49:22.813Z,38.72
2023-04-29T00:54:25.428Z,32.95
2023-04-29T00:59:32.207Z,33.13
2023-04-29T01:04:34.453Z,38.78
2023-04-29T01:09:57.886Z,42.35
2023-04-29T01:15:07.318Z,41.58
2023-04-29T01:20:10.926Z,47.67
2023-04-29T01:25:13.086Z,34.60
2023-04-29T01:30:46.889Z,36.58
2023-04-29T01:36:17.028Z,40.33
2023-04-29T01:41:28.397Z,43.95
2023-04-29T01:46:39.117Z,38.13
2023-04-29T01:51:41.381Z,50.67
2023-04-29T01:56:44.285Z,36.58
2023-04-29T02:02:04.011Z,50.08
2023-04-29T02:07:07.374Z,46.03
2023-04-29T02:12:10.037Z,41.72
2023-04-29T02:17:12.208Z,46.10
2023-04-29T02:22:16.994Z,40.95
2023-04-29T02:27:19.223Z,37.78
2023-04-29T02:32:21.346Z,50.88
2023-04-29T02:37:23.716Z,47.53
2023-04-29T02:42:25.765Z,43.47
2023-04-29T02:47:27.926Z,50.17
2023-04-29T02:52:31.279Z,53.88
2023-04-29T02:57:33.678Z,44.60
2023-04-29T03:02:36.356Z,41.50
2023-04-29T03:07:39.234Z,42.95
2023-04-29T03:12:41.318Z,51.28
2023-04-29T03:17:45.643Z,48.08
2023-04-29T03:22:48.919Z,47.78
2023-04-29T03:27:50.950Z,33.20
2023-04-29T03:32:53.178Z,37.72
2023-04-29T03:37:55.547Z,33.90
2023-04-29T03:43:04.532Z,34.05
2023-04-29T03:48:07.872Z,36.10
2023-04-29T03:53:10.266Z,38.83
2023-04-29T03:58:12.498Z,35.38
2023-04-29T04:03:14.849Z,40.47
2023-04-29T04:08:19.350Z,40.60
2023-04-29T04:13:27.181Z,37.13
2023-04-29T04:18:29.448Z,42.72
2023-04-29T04:23:32.266Z,37.45
2023-04-29T04:28:34.596Z,34.08
2023-04-29T04:33:41.977Z,33.75
2023-04-29T04:38:44.441Z,29.25
2023-04-29T04:43:48.043Z,31.58
2023-04-29T04:49:28.476Z,29.15
2023-04-29T04:54:31.950Z,31.88
2023-04-29T04:59:43.049Z,30.92
2023-04-29T05:04:45.720Z,33.28
2023-04-29T05:09:50.872Z,25.00
2023-04-29T05:14:53.555Z,27.30
2023-04-29T05:19:55.964Z,33.72
2023-04-29T05:25:02.834Z,30.20
2023-04-29T05:30:07.331Z,27.33
2023-04-29T05:35:09.601Z,27.55
2023-04-29T05:40:11.986Z,31.17
2023-04-29T05:45:15.222Z,29.23
2023-04-29T05:50:17.376Z,26.63
2023-04-29T05:55:20.251Z,32.20
2023-04-29T06:00:23.378Z,33.08
2023-04-29T06:05:30.885Z,27.17
2023-04-29T06:10:52.153Z,28.42
2023-04-29T06:15:54.651Z,30.90
2023-04-29T06:20:57.288Z,36.22
2023-04-29T06:25:59.345Z,27.83
2023-04-29T06:31:01.641Z,32.38
2023-04-29T06:36:04.677Z,30.40
2023-04-29T06:41:25.509Z,27.92
2023-04-29T06:46:46.432Z,26.17
2023-04-29T06:51:55.070Z,32.08
2023-04-29T06:56:58.151Z,30.23
2023-04-29T07:02:00.940Z,30.15
2023-04-29T07:07:03.712Z,30.60
2023-04-29T07:12:06.470Z,32.63
2023-04-29T07:17:08.554Z,31.83
2023-04-29T07:22:10.610Z,29.83
2023-04-29T07:27:12.651Z,25.98
2023-04-29T07:32:15.778Z,31.95
2023-04-29T07:37:17.808Z,28.90
2023-04-29T07:42:19.868Z,23.33
2023-04-29T07:47:21.881Z,25.58
2023-04-29T07:52:23.984Z,27.48
2023-04-29T07:57:26.045Z,25.52
2023-04-29T08:02:28.349Z,24.27
2023-04-29T08:07:31.502Z,24.25
2023-04-29T08:12:34.254Z,28.58
2023-04-29T08:17:36.356Z,26.83
2023-04-29T08:22:38.495Z,27.33
2023-04-29T08:27:40.624Z,24.65
2023-04-29T08:32:42.812Z,24.38
2023-04-29T08:37:44.935Z,23.15
2023-04-29T08:42:49.191Z,26.90
2023-04-29T08:47:52.495Z,19.15
2023-04-29T08:52:55.177Z,18.95
2023-04-29T08:57:57.583Z,17.48
2023-04-29T09:03:01.487Z,20.48
2023-04-29T09:08:05.148Z,17.88
2023-04-29T09:13:07.314Z,19.50
2023-04-29T09:18:09.370Z,20.17
2023-04-29T09:23:11.639Z,17.98
2023-04-29T09:28:19.377Z,19.15
2023-04-29T09:33:21.500Z,17.30
2023-04-29T09:38:23.578Z,19.73
2023-04-29T09:43:26.199Z,16.33
2023-04-29T09:48:33.562Z,13.35
2023-04-29T09:53:38.100Z,15.10
2023-04-29T09:58:40.414Z,17.17
2023-04-29T10:03:43.694Z,14.10
2023-04-29T10:08:47.845Z,11.77
2023-04-29T10:13:52.203Z,21.48
2023-04-29T10:18:56.549Z,13.60
2023-04-29T10:23:59.670Z,14.52
2023-04-29T10:29:03.300Z,15.57
2023-04-29T10:34:05.655Z,14.70
2023-04-29T10:39:13.045Z,14.50
2023-04-29T10:44:15.091Z,11.57
2023-04-29T10:49:17.082Z,12.02
2023-04-29T10:54:25.513Z,9.18
2023-04-29T10:59:33.630Z,8.77
2023-04-29T11:04:56.914Z,10.90
2023-04-29T11:09:59.159Z,11.77
2023-04-29T11:15:04.555Z,9.10
2023-04-29T11:20:10.667Z,11.70
2023-04-29T11:25:12.714Z,10.77
2023-04-29T11:30:16.824Z,12.32
2023-04-29T11:35:20.144Z,9.73
2023-04-29T11:40:22.220Z,11.43
2023-04-29T11:45:24.660Z,13.52
2023-04-29T11:50:27.107Z,9.88
2023-04-29T11:55:29.369Z,10.02
2023-04-29T12:00:31.494Z,10.52
2023-04-29T12:05:33.760Z,9.93
2023-04-29T12:10:36.655Z,12.00
2023-04-29T12:15:40.236Z,9.70
2023-04-29T12:20:42.661Z,7.13
2023-04-29T12:25:56.919Z,10.30
2023-04-29T12:30:59.165Z,10.55
2023-04-29T12:36:02.142Z,9.07
2023-04-29T12:41:07.483Z,8.35
2023-04-29T12:46:12.994Z,14.27
2023-04-29T12:51:16.646Z,8.80
2023-04-29T12:56:18.765Z,10.30
2023-04-29T13:01:21.019Z,10.55
2023-04-29T13:06:23.566Z,9.50
2023-04-29T13:11:30.364Z,7.30
2023-04-29T13:16:36.915Z,7.63
2023-04-29T13:21:39.434Z,7.53
2023-04-29T13:26:41.435Z,6.78
2023-04-29T13:31:44.160Z,9.13
2023-04-29T13:36:46.776Z,6.75
2023-04-29T13:41:49.087Z,6.40
2023-04-29T13:46:52.406Z,8.80
2023-04-29T13:52:47.440Z,9.18
2023-04-29T13:58:12.485Z,8.48
2023-04-29T14:07:40.900Z,6.22
2023-04-29T14:12:42.972Z,8.38
2023-04-29T14:17:45.106Z,4.82
2023-04-29T14:22:47.236Z,6.38
2023-04-29T14:27:49.673Z,5.68
2023-04-29T14:32:51.768Z,5.90
2023-04-29T14:37:53.818Z,7.03
2023-04-29T14:42:56.108Z,6.97
2023-04-29T14:47:58.123Z,6.55
2023-04-29T14:53:01.551Z,5.63
2023-04-29T14:58:04.975Z,6.35
2023-04-29T15:03:07.228Z,5.20
2023-04-29T15:08:09.599Z,4.55
2023-04-29T15:13:11.622Z,6.38
2023-04-29T15:18:13.810Z,4.95
2023-04-29T15:23:16.100Z,4.78
2023-04-29T15:28:18.300Z,7.00
2023-04-29T15:33:20.456Z,5.90
2023-04-29T15:38:22.531Z,5.32
2023-04-29T15:43:24.668Z,4.43
2023-04-29T15:48:27.195Z,4.68
2023-04-29T15:53:29.154Z,5.97
2023-04-29T15:58:31.242Z,6.30
2023-04-29T16:03:33.422Z,6.43
2023-04-29T16:08:35.680Z,7.07
2023-04-29T16:13:37.745Z,8.02
2023-04-29T16:18:39.823Z,8.48
2023-04-29T16:23:41.859Z,6.45
2023-04-29T16:28:43.878Z,8.35
2023-04-29T16:33:45.947Z,10.02
2023-04-29T16:38:48.468Z,9.07
2023-04-29T16:43:50.563Z,6.43
2023-04-29T16:48:56.647Z,6.30
2023-04-29T16:53:58.930Z,9.65
2023-04-29T16:59:01.183Z,6.18
2023-04-29T17:04:04.049Z,6.38
2023-04-29T17:09:06.751Z,6.72
2023-04-29T17:14:08.770Z,6.25
2023-04-29T17:19:11.156Z,7.40
2023-04-29T17:24:13.254Z,9.45
2023-04-29T17:29:15.292Z,5.95
2023-04-29T17:34:23.597Z,7.00
2023-04-29T17:39:25.731Z,5.60
2023-04-29T17:44:27.936Z,6.18
2023-04-29T17:49:30.040Z,5.53
2023-04-29T17:54:32.102Z,4.88
2023-04-29T17:59:34.152Z,7.85
2023-04-29T18:04:37.306Z,5.93
2023-04-29T18:09:39.431Z,5.30
2023-04-29T18:14:42.254Z,6.55
2023-04-29T18:19:47.265Z,8.82
2023-04-29T18:24:49.655Z,10.27
2023-04-29T18:29:51.840Z,6.28
2023-04-29T18:34:53.961Z,6.28
2023-04-29T18:39:56.385Z,5.97
2023-04-29T18:44:58.507Z,8.48
2023-04-29T18:50:00.547Z,5.43
2023-04-29T18:55:02.638Z,5.75
2023-04-29T19:00:06.060Z,6.28
2023-04-29T19:05:12.884Z,6.05
2023-04-29T19:10:15.005Z,5.05
2023-04-29T19:15:18.012Z,6.95
2023-04-29T19:20:21.534Z,5.53
2023-04-29T19:25:25.886Z,6.75
2023-04-29T19:30:27.973Z,6.78
2023-04-29T19:35:30.002Z,7.72
2023-04-29T19:40:32.138Z,6.47
2023-04-29T19:45:35.262Z,8.52
2023-04-29T19:50:37.319Z,6.82
2023-04-29T19:55:39.887Z,5.15
2023-04-29T20:00:41.995Z,4.80
2023-04-29T20:05:44.092Z,5.47
2023-04-29T20:10:46.217Z,3.95
2023-04-29T20:15:48.527Z,4.05
2023-04-29T20:20:50.978Z,4.97
2023-04-29T20:25:53.020Z,5.15
2023-04-29T20:30:55.765Z,3.72
2023-04-29T20:35:59.410Z,5.53
2023-04-29T20:41:02.781Z,5.03
2023-04-29T20:46:04.860Z,4.30
2023-04-29T20:51:06.999Z,5.60
2023-04-29T20:56:10.530Z,5.88
2023-04-29T21:01:12.621Z,7.97
2023-04-29T21:06:14.812Z,4.75
2023-04-29T21:11:16.901Z,5.22
2023-04-29T21:16:19.464Z,6.20
2023-04-29T21:21:23.121Z,7.82
2023-04-29T21:26:25.218Z,12.20
2023-04-29T21:31:27.325Z,7.93
2023-04-29T21:36:29.312Z,9.82
2023-04-29T21:41:34.733Z,6.28
2023-04-29T21:46:36.965Z,5.80
2023-04-29T21:51:39.190Z,6.72
2023-04-29T21:56:41.271Z,6.72
2023-04-29T22:01:43.402Z,6.47
2023-04-29T22:06:45.887Z,8.45
2023-04-29T22:11:48.442Z,8.80
2023-04-29T22:16:50.542Z,8.50
2023-04-29T22:21:52.604Z,10.48
2023-04-29T22:26:54.613Z,7.63
2023-04-29T22:31:56.701Z,10.82
2023-04-29T22:36:58.710Z,7.32
2023-04-29T22:42:00.952Z,8.70
2023-04-29T22:47:03.927Z,12.23
2023-04-29T22:52:06.057Z,10.05
2023-04-29T22:57:08.652Z,10.98
2023-04-29T23:02:10.635Z,11.23
2023-04-29T23:07:12.704Z,13.02
2023-04-29T23:12:15.007Z,13.45
2023-04-29T23:17:17.124Z,13.18
2023-04-29T23:22:19.214Z,11.75
2023-04-29T23:27:21.249Z,11.60
2023-04-29T23:32:24.434Z,13.05
2023-04-29T23:37:26.474Z,14.70
2023-04-29T23:42:28.495Z,16.70
2023-04-29T23:47:30.609Z,13.07
2023-04-29T23:52:32.650Z,13.52
2023-04-29T23:57:34.657Z,13.18
